Time;durP1;ratioP1;P1;durP2;ratioP2;P2;SDS_P1;SDS_P2;PMS_P1;PMS_P2;Temp;Humidity;BMP_temperature;BMP_pressure;BME280_temperature;BME280_humidity;BME280_pressure;Samples;Min_cycle;Max_cycle;Signal;HPM_P1;HPM_P2
2021/06/06 00:00:36;;;;;;;7.90;4.85;;;;;;;15.88;nan;102037.09;5032136;28;20079;-74
2021/06/06 00:03:03;;;;;;;8.18;5.45;;;;;;;15.92;nan;102040.91;5018840;28;20021;-73
2021/06/06 00:06:03;;;;;;;6.60;4.82;;;;;;;15.94;nan;102033.38;5031386;28;20112;-73
2021/06/06 00:08:30;;;;;;;7.68;4.45;;;;;;;16.02;nan;102040.22;5010023;28;20570;-74
2021/06/06 00:11:06;;;;;;;7.68;4.63;;;;;;;16.01;nan;102041.31;5032135;28;20116;-74
2021/06/06 00:13:32;;;;;;;5.35;4.03;;;;;;;16.05;nan;102044.31;5030851;28;20029;-74
2021/06/06 00:15:58;;;;;;;6.35;4.35;;;;;;;16.03;nan;102047.28;5031640;28;20111;-73
2021/06/06 00:18:24;;;;;;;6.35;4.80;;;;;;;15.90;nan;102045.75;5030454;28;20029;-73
2021/06/06 00:20:50;;;;;;;11.65;4.55;;;;;;;15.74;nan;102052.03;5032918;28;20636;-73
2021/06/06 00:23:15;;;;;;;6.28;4.32;;;;;;;15.83;nan;102055.13;5029844;28;20022;-74
2021/06/06 00:25:41;;;;;;;9.98;4.50;;;;;;;15.84;nan;102051.38;5028201;28;20025;-73
2021/06/06 00:28:07;;;;;;;9.30;6.10;;;;;;;15.27;nan;102048.94;5018206;28;20024;-73
2021/06/06 00:30:33;;;;;;;9.77;6.70;;;;;;;15.14;nan;102060.88;5030642;28;20029;-73
2021/06/06 00:32:59;;;;;;;5.60;5.00;;;;;;;15.18;nan;102059.31;5030173;28;20392;-73
2021/06/06 00:35:25;;;;;;;5.15;4.18;;;;;;;15.24;nan;102058.31;5017041;28;20025;-73
2021/06/06 00:37:51;;;;;;;7.90;4.75;;;;;;;15.33;nan;102053.34;5018084;28;20025;-73
2021/06/06 00:40:24;;;;;;;7.13;4.80;;;;;;;15.34;nan;102058.50;5014869;28;20022;-73
2021/06/06 00:42:49;;;;;;;7.45;4.93;;;;;;;15.33;nan;102054.16;5033088;28;20032;-74
2021/06/06 00:45:22;;;;;;;8.40;4.88;;;;;;;15.24;nan;102052.94;5028103;28;20035;-73
2021/06/06 00:47:47;;;;;;;7.75;4.80;;;;;;;15.15;nan;102054.44;5031178;28;20025;-73
2021/06/06 00:50:23;;;;;;;5.70;5.03;;;;;;;15.03;nan;102056.38;5030339;28;20484;-73
2021/06/06 00:52:53;;;;;;;6.45;4.75;;;;;;;14.94;nan;102055.19;5023195;28;20027;-73
2021/06/06 00:55:19;;;;;;;6.75;4.88;;;;;;;14.87;nan;102057.19;5028189;28;20075;-73
2021/06/06 00:57:45;;;;;;;7.57;4.82;;;;;;;14.87;nan;102054.50;5031247;28;20436;-73
2021/06/06 01:00:19;;;;;;;7.28;4.82;;;;;;;14.74;nan;102059.16;5020491;28;20117;-74
2021/06/06 01:02:46;;;;;;;6.60;4.38;;;;;;;14.62;nan;102053.00;5031618;28;20434;-73
2021/06/06 01:05:54;;;;;;;6.43;4.78;;;;;;;14.49;nan;102050.63;5016019;28;20035;-73
2021/06/06 01:08:20;;;;;;;6.88;5.07;;;;;;;14.48;nan;102055.19;5028531;28;20037;-73
2021/06/06 01:10:50;;;;;;;7.88;4.85;;;;;;;14.43;nan;102051.56;5028896;28;20021;-74
2021/06/06 01:13:21;;;;;;;6.75;4.80;;;;;;;14.40;nan;102054.75;5028416;28;20633;-73
2021/06/06 01:16:15;;;;;;;7.25;5.38;;;;;;;14.21;nan;102054.94;5031279;28;20060;-73
2021/06/06 01:18:46;;;;;;;7.68;5.10;;;;;;;14.22;nan;102050.38;5029859;28;20076;-73
2021/06/06 01:21:21;;;;;;;7.68;5.10;;;;;;;14.18;nan;102047.34;5020100;28;20376;-73
2021/06/06 01:23:54;;;;;;;7.75;5.07;;;;;;;14.11;nan;102057.44;5028149;28;20480;-73
2021/06/06 01:26:51;;;;;;;6.57;4.90;;;;;;;13.96;nan;102059.81;5026271;28;20039;-73
2021/06/06 01:29:35;;;;;;;7.00;5.70;;;;;;;13.94;nan;102053.84;4988562;28;20494;-73
2021/06/06 01:32:20;;;;;;;7.18;4.88;;;;;;;13.91;nan;102057.84;5019098;28;20032;-73
2021/06/06 01:34:52;;;;;;;7.57;5.20;;;;;;;13.93;nan;102054.91;5013987;28;20051;-73
2021/06/06 01:37:21;;;;;;;6.45;5.13;;;;;;;13.89;nan;102054.56;5030978;28;20139;-73
2021/06/06 01:40:13;;;;;;;6.60;5.00;;;;;;;13.79;nan;102054.34;5017853;28;20025;-74
2021/06/06 01:42:43;;;;;;;7.75;5.70;;;;;;;13.81;nan;102059.50;5032231;28;20044;-73
2021/06/06 01:45:16;;;;;;;9.25;5.88;;;;;;;13.75;nan;102065.84;5023318;28;20116;-74
2021/06/06 01:47:45;;;;;;;8.52;5.50;;;;;;;13.68;nan;102054.38;5030731;28;20039;-73
2021/06/06 01:50:21;;;;;;;10.15;6.15;;;;;;;13.54;nan;102051.94;5029838;28;20017;-73
2021/06/06 01:52:48;;;;;;;10.85;7.03;;;;;;;13.58;nan;102061.19;5016976;28;20106;-73
2021/06/06 01:55:18;;;;;;;9.00;6.10;;;;;;;13.58;nan;102063.06;5020957;28;20399;-73
2021/06/06 01:57:45;;;;;;;9.68;6.20;;;;;;;13.51;nan;102068.56;5032387;28;20040;-74
2021/06/06 02:00:18;;;;;;;9.20;6.00;;;;;;;13.42;nan;102066.44;5032690;28;20041;-74
2021/06/06 02:02:45;;;;;;;10.25;5.78;;;;;;;13.37;nan;102064.47;5014862;28;20037;-73
2021/06/06 02:05:14;;;;;;;11.40;6.15;;;;;;;13.35;nan;102066.59;5031192;28;20087;-73
2021/06/06 02:07:42;;;;;;;122.07;12.18;;;;;;;13.29;nan;102062.16;5033092;28;20439;-73
2021/06/06 02:10:11;;;;;;;67.13;9.70;;;;;;;13.23;nan;102054.97;5028067;28;20017;-73
2021/06/06 02:12:41;;;;;;;24.30;6.88;;;;;;;13.23;nan;102055.81;5031403;28;20043;-74
2021/06/06 02:15:12;;;;;;;13.63;6.45;;;;;;;13.20;nan;102055.47;5030984;28;20436;-73
2021/06/06 02:17:38;;;;;;;18.90;6.10;;;;;;;13.15;nan;102058.81;5032185;28;20036;-73
2021/06/06 02:20:06;;;;;;;11.25;6.22;;;;;;;13.12;nan;102071.94;5031783;28;20021;-73
2021/06/06 02:22:32;;;;;;;10.57;6.05;;;;;;;13.09;nan;102067.00;5022951;28;20518;-74
2021/06/06 02:24:59;;;;;;;9.40;6.00;;;;;;;13.08;nan;102051.91;5020342;28;20028;-73
2021/06/06 02:27:44;;;;;;;11.05;6.10;;;;;;;13.00;nan;102058.47;5033242;28;20033;-74
2021/06/06 02:30:22;;;;;;;10.52;6.35;;;;;;;12.92;nan;102056.09;5023226;28;20028;-73
2021/06/06 02:33:02;;;;;;;8.55;6.07;;;;;;;12.92;nan;102056.09;5034890;28;20023;-74
2021/06/06 02:35:46;;;;;;;10.93;5.65;;;;;;;12.92;nan;102062.28;5033114;28;20083;-73
2021/06/06 02:38:26;;;;;;;10.55;6.10;;;;;;;12.89;nan;102061.94;5020255;28;20026;-73
2021/06/06 02:41:03;;;;;;;14.20;6.28;;;;;;;12.89;nan;102068.13;5033671;28;20720;-73
2021/06/06 02:43:42;;;;;;;11.48;6.65;;;;;;;12.94;nan;102070.16;5017730;28;20037;-74
2021/06/06 02:46:08;;;;;;;13.90;6.35;;;;;;;12.94;nan;102059.41;5034798;28;20021;-73
2021/06/06 02:48:39;;;;;;;12.80;6.63;;;;;;;12.85;nan;102064.28;5034215;28;20103;-73
2021/06/06 02:51:08;;;;;;;11.25;6.32;;;;;;;12.92;nan;102061.47;5035756;28;20028;-73
2021/06/06 02:53:41;;;;;;;12.57;6.00;;;;;;;12.94;nan;102064.78;5035300;28;20030;-74
2021/06/06 02:56:18;;;;;;;8.52;6.28;;;;;;;12.88;nan;102061.13;5035021;28;20029;-73
2021/06/06 02:58:49;;;;;;;13.50;6.38;;;;;;;12.92;nan;102064.16;5033216;28;20029;-73
2021/06/06 03:01:40;;;;;;;10.82;6.55;;;;;;;12.88;nan;102063.00;5025443;28;20025;-73
2021/06/06 03:04:10;;;;;;;9.13;6.57;;;;;;;12.92;nan;102064.97;5033340;28;20127;-73
2021/06/06 03:06:51;;;;;;;9.13;6.38;;;;;;;12.92;nan;102059.59;5018405;28;20021;-73
2021/06/06 03:09:17;;;;;;;10.15;5.50;;;;;;;12.99;nan;102062.19;5024271;28;20021;-73
2021/06/06 03:11:45;;;;;;;10.20;6.65;;;;;;;13.04;nan;102061.50;5031474;28;20021;-73
2021/06/06 03:14:16;;;;;;;9.25;6.13;;;;;;;13.10;nan;102057.88;5024393;28;20063;-73
2021/06/06 03:17:07;;;;;;;10.50;6.32;;;;;;;13.09;nan;102057.03;5033895;28;20028;-73
2021/06/06 03:19:38;;;;;;;10.25;6.72;;;;;;;13.18;nan;102052.19;5034093;28;20128;-73
2021/06/06 03:22:08;;;;;;;7.88;6.72;;;;;;;13.25;nan;102051.00;5034725;28;20033;-73
2021/06/06 03:24:39;;;;;;;8.98;6.85;;;;;;;13.31;nan;102057.34;5033708;28;20396;-74
2021/06/06 03:27:07;;;;;;;7.97;6.30;;;;;;;13.39;nan;102062.38;5026334;28;20483;-73
2021/06/06 03:29:40;;;;;;;8.98;6.60;;;;;;;13.45;nan;102061.41;5032951;28;22067;-73
2021/06/06 03:32:09;;;;;;;8.52;6.80;;;;;;;13.52;nan;102062.13;5034630;28;20500;-73
2021/06/06 03:34:35;;;;;;;10.15;6.07;;;;;;;13.61;nan;102071.47;5019644;28;20428;-74
2021/06/06 03:37:01;;;;;;;10.95;6.60;;;;;;;13.67;nan;102066.22;5034553;28;20108;-74
2021/06/06 03:39:27;;;;;;;9.18;6.25;;;;;;;13.72;nan;102061.75;5032962;28;20112;-73
2021/06/06 03:41:56;;;;;;;11.95;6.70;;;;;;;13.73;nan;102057.19;5033877;28;20464;-73
2021/06/06 03:44:23;;;;;;;9.27;6.68;;;;;;;13.79;nan;102065.13;5030055;28;20047;-74
2021/06/06 03:46:49;;;;;;;8.18;6.72;;;;;;;13.82;nan;102063.81;5032675;28;20033;-73
2021/06/06 03:49:15;;;;;;;10.13;6.45;;;;;;;13.88;nan;102065.59;5032490;28;20044;-73
2021/06/06 03:51:41;;;;;;;9.57;6.32;;;;;;;13.95;nan;102060.88;5033057;28;20537;-73
2021/06/06 03:54:10;;;;;;;10.43;6.53;;;;;;;14.01;nan;102064.50;5034923;28;20028;-74
2021/06/06 03:56:37;;;;;;;11.02;6.25;;;;;;;14.12;nan;102061.75;5018529;28;20029;-74
2021/06/06 03:59:04;;;;;;;7.95;6.43;;;;;;;14.19;nan;102061.63;5034068;28;20037;-73
2021/06/06 04:01:29;;;;;;;7.90;5.65;;;;;;;14.24;nan;102066.31;5015990;28;20123;-73
2021/06/06 04:03:55;;;;;;;8.63;6.53;;;;;;;14.23;nan;102061.97;5032801;28;20048;-73
2021/06/06 04:06:21;;;;;;;12.85;6.80;;;;;;;14.24;nan;102066.31;5032438;28;20062;-73
2021/06/06 04:08:46;;;;;;;9.18;6.60;;;;;;;14.32;nan;102064.03;5032901;28;20108;-73
2021/06/06 04:11:12;;;;;;;9.15;6.68;;;;;;;14.51;nan;102059.28;5022113;28;20032;-74
2021/06/06 04:13:38;;;;;;;10.80;6.72;;;;;;;14.63;nan;102068.13;5032481;28;20049;-73
2021/06/06 04:16:05;;;;;;;12.55;6.60;;;;;;;14.78;nan;102060.31;5033465;28;20441;-73
2021/06/06 04:18:32;;;;;;;11.38;6.40;;;;;;;14.96;nan;102058.44;5021685;28;20057;-73
2021/06/06 04:21:02;;;;;;;7.68;5.80;;;;;;;15.10;nan;102067.84;5022521;28;20021;-74
2021/06/06 04:23:28;;;;;;;10.05;6.28;;;;;;;15.22;nan;102065.03;5032723;28;20021;-73
2021/06/06 04:25:54;;;;;;;9.02;6.07;;;;;;;15.37;nan;102060.69;5033279;28;20056;-73
2021/06/06 04:28:21;;;;;;;6.72;5.90;;;;;;;15.52;nan;102061.97;5020820;28;20056;-73
2021/06/06 04:30:48;;;;;;;9.90;6.45;;;;;;;15.64;nan;102068.13;5032877;28;20032;-74
2021/06/06 04:33:14;;;;;;;9.00;6.05;;;;;;;15.75;nan;102056.38;5033717;28;20025;-74
2021/06/06 04:35:44;;;;;;;8.82;6.32;;;;;;;15.86;nan;102058.16;5020795;28;20438;-73
2021/06/06 04:38:12;;;;;;;9.13;6.00;;;;;;;16.00;nan;102062.13;5032865;28;20048;-74
2021/06/06 04:40:38;;;;;;;11.50;6.25;;;;;;;16.15;nan;102063.34;5031297;28;20407;-73
2021/06/06 04:43:05;;;;;;;7.72;6.50;;;;;;;16.26;nan;102065.09;5033223;28;21010;-73
2021/06/06 04:45:30;;;;;;;7.40;6.25;;;;;;;16.38;nan;102057.66;5031685;28;20030;-74
2021/06/06 04:48:10;;;;;;;7.95;6.43;;;;;;;16.50;nan;102060.19;5021053;28;20031;-74
2021/06/06 04:50:36;;;;;;;9.95;6.80;;;;;;;16.62;nan;102056.25;5022062;28;20368;-74
2021/06/06 04:53:02;;;;;;;11.25;7.30;;;;;;;16.69;nan;102055.25;5034533;28;20080;-73
2021/06/06 04:55:28;;;;;;;8.70;6.70;;;;;;;16.83;nan;102051.88;5031341;28;20090;-74
2021/06/06 04:57:53;;;;;;;11.75;6.85;;;;;;;16.94;nan;102055.50;5032623;28;20041;-74
2021/06/06 05:00:24;;;;;;;12.40;7.63;;;;;;;17.05;nan;102057.19;5031809;28;20037;-73
2021/06/06 05:02:51;;;;;;;11.05;7.10;;;;;;;17.11;nan;102048.03;5023304;28;20036;-73
2021/06/06 05:05:16;;;;;;;9.68;6.72;;;;;;;17.21;nan;102050.81;5032119;28;20036;-73
2021/06/06 05:07:54;;;;;;;9.73;6.97;;;;;;;17.23;nan;102058.66;5021566;28;20407;-74
2021/06/06 05:10:20;;;;;;;9.60;7.00;;;;;;;17.47;nan;102051.78;5016237;28;20029;-73
2021/06/06 05:15:16;;;;;;;7.95;6.18;;;;;;;17.62;nan;102056.47;5012807;28;20054;-56
2021/06/06 05:17:42;;;;;;;9.05;5.95;;;;;;;17.77;nan;102058.47;5009663;28;20071;-55
2021/06/06 05:20:09;;;;;;;10.43;7.18;;;;;;;17.85;nan;102063.38;5014885;28;20025;-50
2021/06/06 05:22:35;;;;;;;7.68;6.13;;;;;;;17.94;nan;102060.97;5013956;28;20506;-53
2021/06/06 05:25:00;;;;;;;9.00;6.85;;;;;;;18.12;nan;102061.31;4992651;28;20109;-51
2021/06/06 05:27:27;;;;;;;8.63;6.28;;;;;;;18.26;nan;102060.81;4987672;28;20038;-50
2021/06/06 05:29:52;;;;;;;10.27;6.60;;;;;;;18.27;nan;102059.72;4989601;28;20479;-51
2021/06/06 05:32:18;;;;;;;9.68;7.15;;;;;;;18.56;nan;102060.06;4991608;28;20073;-50
2021/06/06 05:34:43;;;;;;;8.52;6.72;;;;;;;18.84;nan;102062.25;4986239;28;20026;-54
2021/06/06 05:37:13;;;;;;;11.25;7.05;;;;;;;19.04;nan;102060.66;4989993;28;20113;-50
2021/06/06 05:39:42;;;;;;;8.55;6.68;;;;;;;18.89;nan;102070.44;4988194;28;20026;-51
2021/06/06 05:42:09;;;;;;;11.20;7.22;;;;;;;19.08;nan;102064.44;4988034;28;20029;-50
2021/06/06 05:44:34;;;;;;;8.57;6.43;;;;;;;19.46;nan;102072.00;4992334;28;20041;-54
2021/06/06 05:47:01;;;;;;;9.35;6.60;;;;;;;19.76;nan;102068.41;4990456;28;20018;-52
2021/06/06 05:49:27;;;;;;;8.30;6.30;;;;;;;19.94;nan;102075.13;4991560;28;20040;-50
2021/06/06 05:51:52;;;;;;;11.65;7.22;;;;;;;20.02;nan;102062.84;4987794;28;20034;-51
2021/06/06 05:54:18;;;;;;;9.27;6.88;;;;;;;20.33;nan;102068.94;4989930;28;20030;-49
2021/06/06 05:56:44;;;;;;;9.40;6.45;;;;;;;20.37;nan;102067.28;4990758;28;20027;-54
2021/06/06 05:59:10;;;;;;;8.77;6.68;;;;;;;20.44;nan;102070.53;4988615;28;20030;-52
2021/06/06 06:01:35;;;;;;;9.60;6.65;;;;;;;20.58;nan;102068.81;4994337;28;20640;-52
2021/06/06 06:04:01;;;;;;;9.30;6.45;;;;;;;20.91;nan;102069.09;4992747;28;20491;-51
2021/06/06 06:06:27;;;;;;;9.73;6.07;;;;;;;21.11;nan;102072.44;4991621;28;20033;-53
2021/06/06 06:08:54;;;;;;;10.05;6.90;;;;;;;21.26;nan;102063.34;4992621;28;20026;-50
2021/06/06 06:11:21;;;;;;;9.40;6.43;;;;;;;21.56;nan;102061.41;4991669;28;20088;-50
2021/06/06 06:13:47;;;;;;;9.23;6.53;;;;;;;21.79;nan;102059.78;4993829;28;20485;-52
2021/06/06 06:16:16;;;;;;;9.20;7.07;;;;;;;22.06;nan;102056.44;4993360;28;20097;-53
2021/06/06 06:18:41;;;;;;;9.02;7.28;;;;;;;22.33;nan;102053.06;4997681;28;20054;-52
2021/06/06 06:21:11;;;;;;;8.18;6.45;;;;;;;22.56;nan;102052.16;4997419;28;20647;-52
2021/06/06 06:23:36;;;;;;;8.85;6.07;;;;;;;22.76;nan;102056.47;4998043;28;20033;-51
2021/06/06 06:26:03;;;;;;;7.65;6.85;;;;;;;22.95;nan;102054.53;4996894;28;20033;-53
2021/06/06 06:28:29;;;;;;;9.95;6.28;;;;;;;22.90;nan;102062.84;4995244;28;20108;-50
2021/06/06 06:30:54;;;;;;;6.65;5.88;;;;;;;23.12;nan;102060.25;4991053;28;20745;-52
2021/06/06 06:33:20;;;;;;;8.02;6.20;;;;;;;23.24;nan;102061.69;4991506;28;21063;-52
2021/06/06 06:35:46;;;;;;;8.73;6.10;;;;;;;23.36;nan;102059.28;4995815;28;20365;-50
2021/06/06 06:38:12;;;;;;;10.32;5.88;;;;;;;23.13;nan;102058.31;4991040;28;20026;-52
2021/06/06 06:40:39;;;;;;;6.68;5.55;;;;;;;23.60;nan;102057.19;4989986;28;20100;-55
2021/06/06 06:43:06;;;;;;;8.18;5.90;;;;;;;23.83;nan;102052.63;4989585;28;20061;-54
2021/06/06 06:45:35;;;;;;;7.10;5.70;;;;;;;23.92;nan;102063.66;4992329;28;20061;-52
2021/06/06 06:48:10;;;;;;;8.52;5.43;;;;;;;24.22;nan;102053.94;4993742;28;20108;-52
2021/06/06 06:50:36;;;;;;;6.80;5.50;;;;;;;24.37;nan;102062.66;4991134;28;20025;-50
2021/06/06 06:53:02;;;;;;;7.35;5.40;;;;;;;24.47;nan;102061.63;4993281;28;20037;-52
2021/06/06 06:55:28;;;;;;;8.93;6.00;;;;;;;24.07;nan;102060.59;4988555;28;20067;-51
2021/06/06 06:57:55;;;;;;;7.50;5.90;;;;;;;24.20;nan;102065.22;4993234;28;20463;-52
2021/06/06 07:00:26;;;;;;;7.78;5.40;;;;;;;24.43;nan;102068.84;4992795;28;20049;-52
2021/06/06 07:02:52;;;;;;;7.72;5.15;;;;;;;24.54;nan;102067.47;4991878;28;20091;-51
2021/06/06 07:05:18;;;;;;;7.25;5.95;;;;;;;24.84;nan;102067.84;4992580;28;20562;-51
2021/06/06 07:07:44;;;;;;;7.90;5.75;;;;;;;24.88;nan;102066.09;4990851;28;20049;-54
2021/06/06 07:10:11;;;;;;;6.45;5.53;;;;;;;24.69;nan;102064.38;4993631;28;20033;-53
2021/06/06 07:12:38;;;;;;;6.82;5.47;;;;;;;24.96;nan;102073.59;4993403;28;20236;-50
2021/06/06 07:15:07;;;;;;;7.95;5.65;;;;;;;24.61;nan;102064.31;4990698;28;20038;-54
2021/06/06 07:17:32;;;;;;;8.27;5.50;;;;;;;24.79;nan;102068.00;4994900;28;20030;-53
2021/06/06 07:19:58;;;;;;;6.72;5.40;;;;;;;24.60;nan;102074.47;4995632;28;20037;-55
2021/06/06 07:22:24;;;;;;;8.20;5.22;;;;;;;24.84;nan;102070.59;4991332;28;20046;-55
2021/06/06 07:24:49;;;;;;;6.68;5.63;;;;;;;25.10;nan;102073.50;4990585;28;20515;-52
2021/06/06 07:27:15;;;;;;;6.20;5.13;;;;;;;25.31;nan;102071.84;4991928;28;20034;-52
2021/06/06 07:29:40;;;;;;;8.35;5.68;;;;;;;25.53;nan;102071.00;4989201;28;20651;-54
2021/06/06 07:32:07;;;;;;;8.18;5.10;;;;;;;25.75;nan;102067.38;4994502;28;20030;-51
2021/06/06 07:34:33;;;;;;;9.35;5.28;;;;;;;25.77;nan;102065.13;4993467;28;20037;-54
2021/06/06 07:37:03;;;;;;;7.25;5.20;;;;;;;26.02;nan;102061.59;4992432;28;20053;-53
2021/06/06 07:39:28;;;;;;;6.78;5.38;;;;;;;26.24;nan;102052.44;4990827;28;20085;-54
2021/06/06 07:41:54;;;;;;;6.28;5.28;;;;;;;26.30;nan;102058.56;4994493;28;20030;-54
2021/06/06 07:44:21;;;;;;;7.72;5.47;;;;;;;26.28;nan;102064.38;4986687;28;20033;-52
2021/06/06 07:46:50;;;;;;;7.18;5.32;;;;;;;26.37;nan;102076.19;4992440;28;20428;-52
2021/06/06 07:49:15;;;;;;;8.00;5.55;;;;;;;26.53;nan;102070.22;4990608;28;20036;-52
2021/06/06 07:51:41;;;;;;;8.18;4.88;;;;;;;26.60;nan;102071.38;4991332;28;20030;-53
2021/06/06 07:54:07;;;;;;;9.98;5.63;;;;;;;26.28;nan;102078.13;4989575;28;20124;-56
2021/06/06 07:56:33;;;;;;;8.27;4.82;;;;;;;25.58;nan;102077.13;4994740;28;20086;-53
2021/06/06 07:58:58;;;;;;;6.15;4.97;;;;;;;25.67;nan;102081.84;4992257;28;20415;-55
2021/06/06 08:01:24;;;;;;;6.38;5.05;;;;;;;25.75;nan;102067.38;4993724;28;20036;-51
2021/06/06 08:03:51;;;;;;;6.60;5.50;;;;;;;25.77;nan;102070.59;4991999;28;20040;-51
2021/06/06 08:06:19;;;;;;;8.13;6.28;;;;;;;25.52;nan;102077.59;4988366;28;20022;-53
2021/06/06 08:08:45;;;;;;;8.02;5.93;;;;;;;25.92;nan;102077.59;4991495;28;20702;-52
2021/06/06 08:11:11;;;;;;;6.25;5.60;;;;;;;26.30;nan;102073.13;4991650;28;20062;-51
2021/06/06 08:13:38;;;;;;;9.07;6.20;;;;;;;26.54;nan;102067.16;4991915;28;20030;-52
2021/06/06 08:16:06;;;;;;;9.20;6.53;;;;;;;26.69;nan;102063.09;4990078;28;20044;-54
2021/06/06 08:18:35;;;;;;;13.23;11.30;;;;;;;26.82;nan;102064.88;4992775;28;20090;-56
2021/06/06 08:21:24;;;;;;;7.22;6.40;;;;;;;26.60;nan;102065.88;4992806;28;20557;-53
2021/06/06 08:23:49;;;;;;;8.45;5.18;;;;;;;26.89;nan;102058.84;4987410;28;20448;-52
2021/06/06 08:26:17;;;;;;;10.63;5.60;;;;;;;27.18;nan;102064.47;4992105;28;20018;-52
2021/06/06 08:28:43;;;;;;;6.72;5.65;;;;;;;27.16;nan;102066.75;4990919;28;20026;-54
2021/06/06 08:31:13;;;;;;;7.65;6.47;;;;;;;27.52;nan;102057.22;4991629;28;20026;-52
2021/06/06 08:33:40;;;;;;;9.35;5.97;;;;;;;27.63;nan;102063.97;4998649;28;20034;-51
2021/06/06 08:36:13;;;;;;;9.27;5.30;;;;;;;27.32;nan;102067.03;4991500;28;20029;-55
2021/06/06 08:38:39;;;;;;;8.40;6.07;;;;;;;27.57;nan;102068.03;4991342;28;20493;-55
2021/06/06 08:41:28;;;;;;;7.55;5.93;;;;;;;27.58;nan;102064.13;4991928;28;20037;-53
2021/06/06 08:44:01;;;;;;;9.15;5.60;;;;;;;27.27;nan;102061.69;4992944;28;20056;-55
2021/06/06 08:46:32;;;;;;;9.50;5.28;;;;;;;27.27;nan;102062.47;4996679;28;20058;-52
2021/06/06 08:48:57;;;;;;;8.35;5.40;;;;;;;27.57;nan;102066.09;4991809;28;20021;-55
2021/06/06 08:51:45;;;;;;;5.90;5.30;;;;;;;27.72;nan;102062.00;4994046;28;20138;-50
2021/06/06 08:54:24;;;;;;;11.98;6.10;;;;;;;27.58;nan;102064.13;4994508;28;20030;-53
2021/06/06 08:57:17;;;;;;;8.45;5.95;;;;;;;27.59;nan;102063.00;4991909;28;20109;-52
2021/06/06 08:59:52;;;;;;;7.25;5.20;;;;;;;28.02;nan;102065.53;4990284;28;20033;-54
2021/06/06 09:02:27;;;;;;;6.78;6.07;;;;;;;28.35;nan;102065.63;4992289;28;20031;-52
2021/06/06 09:04:53;;;;;;;8.60;6.00;;;;;;;28.55;nan;102062.06;4991993;28;20520;-52
2021/06/06 09:07:21;;;;;;;5.97;5.38;;;;;;;28.65;nan;102065.53;4995772;28;20042;-51
2021/06/06 09:09:50;;;;;;;8.50;5.88;;;;;;;28.71;nan;102061.41;4994788;28;20026;-55
2021/06/06 09:12:22;;;;;;;8.10;6.03;;;;;;;28.62;nan;102058.75;4996575;28;20104;-51
2021/06/06 09:14:54;;;;;;;6.20;5.53;;;;;;;28.56;nan;102063.66;4991046;28;20026;-51
2021/06/06 09:17:34;;;;;;;6.43;5.72;;;;;;;28.94;nan;102064.63;4994449;28;20461;-53
2021/06/06 09:20:00;;;;;;;7.43;5.28;;;;;;;29.11;nan;102056.94;4993071;28;21297;-53
2021/06/06 09:22:43;;;;;;;7.93;5.95;;;;;;;29.20;nan;102056.84;4992489;28;20041;-51
2021/06/06 09:25:18;;;;;;;9.23;5.75;;;;;;;29.48;nan;102057.81;4989018;28;20026;-51
2021/06/06 09:27:44;;;;;;;7.60;5.20;;;;;;;29.53;nan;102056.78;4995431;28;20535;-53
2021/06/06 09:30:15;;;;;;;6.10;5.00;;;;;;;29.54;nan;102050.09;4990530;28;20044;-53
2021/06/06 09:32:42;;;;;;;5.68;5.03;;;;;;;29.73;nan;102052.25;4990440;28;20042;-55
2021/06/06 09:35:38;;;;;;;19.75;10.93;;;;;;;29.65;nan;102056.78;4992036;28;20065;-53
2021/06/06 09:38:33;;;;;;;18.67;16.23;;;;;;;29.65;nan;102054.00;4994792;28;20029;-54
2021/06/06 09:41:17;;;;;;;12.45;7.13;;;;;;;30.02;nan;102048.44;4991292;28;20048;-52
2021/06/06 09:43:57;;;;;;;40.28;12.00;;;;;;;30.28;nan;102045.25;4991524;28;20512;-52
2021/06/06 09:46:23;;;;;;;25.33;7.53;;;;;;;30.44;nan;102043.34;4990787;28;20086;-51
2021/06/06 09:48:49;;;;;;;15.77;6.32;;;;;;;30.27;nan;102041.69;4996605;28;20065;-52
2021/06/06 09:51:30;;;;;;;6.72;5.40;;;;;;;30.27;nan;102041.69;4989307;28;20022;-50
2021/06/06 09:54:10;;;;;;;8.23;5.15;;;;;;;30.37;nan;102052.25;4991151;28;20511;-52
2021/06/06 09:56:37;;;;;;;30.13;9.35;;;;;;;30.92;nan;102036.00;4989958;28;20070;-50
2021/06/06 09:59:30;;;;;;;47.28;10.38;;;;;;;30.76;nan;102035.16;4981299;28;20033;-54
2021/06/06 10:02:01;;;;;;;46.10;9.88;;;;;;;30.59;nan;102036.25;4984296;28;20045;-51
2021/06/06 10:04:32;;;;;;;26.90;7.72;;;;;;;30.90;nan;102033.56;4992432;28;20031;-51
2021/06/06 10:07:29;;;;;;;35.47;9.32;;;;;;;30.89;nan;102036.69;4994968;28;20373;-53
2021/06/06 10:09:57;;;;;;;56.55;12.70;;;;;;;30.93;nan;102034.81;4999758;28;20034;-50
2021/06/06 10:12:26;;;;;;;22.50;7.50;;;;;;;30.84;nan;102032.22;4997910;28;20029;-52
2021/06/06 10:14:56;;;;;;;85.75;17.88;;;;;;;30.97;nan;102035.72;4998550;28;21225;-51
2021/06/06 10:17:35;;;;;;;34.65;8.38;;;;;;;31.25;nan;102022.63;4992204;28;20021;-52
2021/06/06 10:20:10;;;;;;;45.95;8.80;;;;;;;31.17;nan;102022.75;4998012;28;20022;-49
2021/06/06 10:22:41;;;;;;;20.40;6.50;;;;;;;31.15;nan;102022.31;4995304;28;20547;-49
2021/06/06 10:25:16;;;;;;;31.52;8.55;;;;;;;30.64;nan;102030.50;4995604;28;20278;-50
2021/06/06 10:27:59;;;;;;;38.08;9.63;;;;;;;30.61;nan;102025.63;4993508;28;20109;-54
2021/06/06 10:30:36;;;;;;;25.10;7.50;;;;;;;30.24;nan;102031.34;4993882;28;20053;-50
2021/06/06 10:33:36;;;;;;;65.00;27.00;;;;;;;30.01;nan;102030.25;4994260;28;20047;-51
2021/06/06 10:36:03;;;;;;;76.15;36.08;;;;;;;30.19;nan;102033.56;4970145;28;20100;-50
2021/06/06 10:38:40;;;;;;;143.55;89.07;;;;;;;30.33;nan;102040.28;4994167;28;20068;-50
2021/06/06 10:41:24;;;;;;;77.57;18.55;;;;;;;30.25;nan;102030.19;4994357;28;20097;-52
2021/06/06 10:43:53;;;;;;;;;;;;;;;30.45;nan;102035.84;4998651;28;20034;-51
2021/06/06 10:46:30;;;;;;;43.50;14.75;;;;;;;30.73;nan;102025.63;4990188;28;19921;-51
2021/06/06 10:49:10;;;;;;;34.40;17.85;;;;;;;31.19;nan;102023.25;4997766;28;20515;-52
2021/06/06 10:51:41;;;;;;;19.23;5.60;;;;;;;31.62;nan;102027.84;4996088;28;20037;-53
2021/06/06 10:54:43;;;;;;;23.98;6.97;;;;;;;31.88;nan;102020.91;4997437;28;20238;-50
2021/06/06 10:57:29;;;;;;;35.95;9.38;;;;;;;31.98;nan;102023.13;4899551;29;20039;-52
2021/06/06 11:00:00;;;;;;;24.40;7.90;;;;;;;32.08;nan;102016.97;4993842;28;20100;-53
2021/06/06 11:02:34;;;;;;;31.98;8.75;;;;;;;32.35;nan;102026.28;4997066;28;20033;-51
2021/06/06 11:05:10;;;;;;;33.50;8.50;;;;;;;32.12;nan;102017.84;4996648;28;20657;-50
2021/06/06 11:07:42;;;;;;;47.70;11.63;;;;;;;32.01;nan;102017.66;4999825;28;20052;-50
2021/06/06 11:10:18;;;;;;;23.35;6.50;;;;;;;32.09;nan;102016.59;4995706;28;20671;-52
2021/06/06 11:12:46;;;;;;;51.17;11.70;;;;;;;31.60;nan;102019.09;4995314;28;20026;-50
2021/06/06 11:15:30;;;;;;;21.60;6.50;;;;;;;31.81;nan;102013.25;4994196;28;20472;-51
2021/06/06 11:18:07;;;;;;;17.20;6.28;;;;;;;31.87;nan;102025.66;4983153;28;20037;-51
2021/06/06 11:20:35;;;;;;;55.97;18.00;;;;;;;32.29;nan;102020.22;4996741;28;20113;-52
2021/06/06 11:23:13;;;;;;;49.72;14.65;;;;;;;32.26;nan;102012.59;4996678;28;20030;-51
2021/06/06 11:25:44;;;;;;;45.35;12.13;;;;;;;32.48;nan;102013.84;4994194;28;20037;-50
2021/06/06 11:28:31;;;;;;;37.45;8.45;;;;;;;32.71;nan;102016.66;4994504;28;20050;-53
2021/06/06 11:30:58;;;;;;;122.25;23.67;;;;;;;32.37;nan;102012.84;4997175;28;20040;-51
2021/06/06 11:33:38;;;;;;;20.30;6.78;;;;;;;32.29;nan;102011.88;4996080;28;20030;-52
2021/06/06 11:36:04;;;;;;;21.70;6.97;;;;;;;32.02;nan;102007.34;4997660;28;20150;-52
2021/06/06 11:38:45;;;;;;;51.55;11.18;;;;;;;32.16;nan;102013.19;4997294;28;20034;-51
2021/06/06 11:41:17;;;;;;;51.42;12.40;;;;;;;32.10;nan;102011.88;4991699;28;20430;-48
2021/06/06 11:44:03;;;;;;;29.52;8.73;;;;;;;32.40;nan;102017.66;4999035;28;20084;-49
2021/06/06 11:46:39;;;;;;;21.90;6.75;;;;;;;32.36;nan;102002.91;4974079;28;20045;-48
2021/06/06 11:49:18;;;;;;;31.70;9.20;;;;;;;31.53;nan;102003.09;4994030;28;20700;-47
2021/06/06 11:51:47;;;;;;;42.40;9.77;;;;;;;32.18;nan;101999.78;4992426;28;20033;-48
2021/06/06 11:54:26;;;;;;;21.77;6.40;;;;;;;32.45;nan;102004.28;4989493;28;20639;-49
2021/06/06 11:56:56;;;;;;;16.30;6.18;;;;;;;32.37;nan;101998.97;4993839;28;20060;-48
2021/06/06 11:59:39;;;;;;;13.35;5.75;;;;;;;32.11;nan;101994.88;4990350;28;20030;-48